createdAt,value
2018-09-19T00:02:07.765Z,17.93
2018-09-19T00:04:36.180Z,17.89
2018-09-19T00:07:04.647Z,17.89
2018-09-19T00:09:33.096Z,17.88
2018-09-19T00:12:01.536Z,17.93
2018-09-19T00:14:29.940Z,17.91
2018-09-19T00:16:58.400Z,17.94
2018-09-19T00:19:26.774Z,17.95
2018-09-19T00:21:55.181Z,17.91
2018-09-19T00:24:23.548Z,17.91
2018-09-19T00:26:51.917Z,17.93
2018-09-19T00:29:20.300Z,17.89
2018-09-19T00:31:49.036Z,17.74
2018-09-19T00:34:17.473Z,17.67
2018-09-19T00:36:45.888Z,17.56
2018-09-19T00:39:14.337Z,17.53
2018-09-19T00:41:42.737Z,17.45
2018-09-19T00:44:11.140Z,17.42
2018-09-19T00:46:39.575Z,17.34
2018-09-19T00:49:08.007Z,17.36
2018-09-19T00:51:36.381Z,17.31
2018-09-19T00:54:04.754Z,17.31
2018-09-19T00:56:33.336Z,17.22
2018-09-19T00:59:01.756Z,17.25
2018-09-19T01:01:30.139Z,17.18
2018-09-19T01:03:58.557Z,17.15
2018-09-19T01:06:27.003Z,17.12
2018-09-19T01:08:55.410Z,17.12
2018-09-19T01:11:23.800Z,17.19
2018-09-19T01:13:52.828Z,17.21
2018-09-19T01:16:21.317Z,17.19
2018-09-19T01:18:49.716Z,17.14
2018-09-19T01:21:18.179Z,17.09
2018-09-19T01:23:47.031Z,17.01
2018-09-19T01:26:15.787Z,17.01
2018-09-19T01:28:44.214Z,16.95
2018-09-19T01:31:12.740Z,16.87
2018-09-19T01:33:41.583Z,16.84
2018-09-19T01:36:10.012Z,16.77
2018-09-19T01:38:38.404Z,16.67
2018-09-19T01:41:07.193Z,16.69
2018-09-19T01:43:35.568Z,16.69
2018-09-19T01:46:04.114Z,16.71
2018-09-19T01:48:32.536Z,16.71
2018-09-19T01:51:01.005Z,16.60
2018-09-19T01:53:29.424Z,16.59
2018-09-19T01:55:57.833Z,16.54
2018-09-19T01:58:26.202Z,16.51
2018-09-19T02:00:54.607Z,16.43
2018-09-19T02:03:22.990Z,16.44
2018-09-19T02:05:51.413Z,16.57
2018-09-19T02:08:20.494Z,16.60
2018-09-19T02:10:49.197Z,16.58
2018-09-19T02:13:17.783Z,16.50
2018-09-19T02:15:46.217Z,16.48
2018-09-19T02:18:14.682Z,16.45
2018-09-19T02:20:43.071Z,16.41
2018-09-19T02:23:11.471Z,16.42
2018-09-19T02:25:39.885Z,16.43
2018-09-19T02:28:08.456Z,16.41
2018-09-19T02:30:36.821Z,16.33
2018-09-19T02:33:05.282Z,16.34
2018-09-19T02:35:33.699Z,16.32
2018-09-19T02:38:02.131Z,16.31
2018-09-19T02:40:30.531Z,16.21
2018-09-19T02:42:58.969Z,16.14
2018-09-19T02:45:27.379Z,16.13
2018-09-19T02:47:55.806Z,16.11
2018-09-19T02:50:24.220Z,16.11
2018-09-19T02:52:54.552Z,16.10
2018-09-19T02:55:23.525Z,16.10
2018-09-19T02:57:52.032Z,16.06
2018-09-19T03:00:21.214Z,16.04
2018-09-19T03:02:50.484Z,15.96
2018-09-19T03:05:18.989Z,15.96
2018-09-19T03:07:47.449Z,15.88
2018-09-19T03:10:16.369Z,15.82
2018-09-19T03:12:44.777Z,15.85
2018-09-19T03:15:13.176Z,15.82
2018-09-19T03:17:41.745Z,15.89
2018-09-19T03:20:10.023Z,15.85
2018-09-19T03:22:38.477Z,15.75
2018-09-19T03:25:07.084Z,15.81
2018-09-19T03:27:35.507Z,15.87
2018-09-19T03:30:03.992Z,15.95
2018-09-19T03:32:32.872Z,16.06
2018-09-19T03:35:01.277Z,16.14
2018-09-19T03:37:29.707Z,16.13
2018-09-19T03:39:58.095Z,16.13
2018-09-19T03:42:26.505Z,16.05
2018-09-19T03:44:55.194Z,15.95
2018-09-19T03:47:23.598Z,15.91
2018-09-19T03:49:52.025Z,15.84
2018-09-19T03:52:20.454Z,15.75
2018-09-19T03:54:48.844Z,15.68
2018-09-19T03:57:17.243Z,15.68
2018-09-19T03:59:45.660Z,15.64
2018-09-19T04:02:14.045Z,15.54
2018-09-19T04:04:42.462Z,15.52
2018-09-19T04:07:10.908Z,15.56
2018-09-19T04:09:39.322Z,15.58
2018-09-19T04:12:08.564Z,15.56
2018-09-19T04:14:36.970Z,15.62
2018-09-19T04:17:05.458Z,15.73
2018-09-19T04:19:33.905Z,15.80
2018-09-19T04:22:02.327Z,15.73
2018-09-19T04:24:30.729Z,15.61
2018-09-19T04:26:59.140Z,15.57
2018-09-19T04:29:27.604Z,15.49
2018-09-19T04:31:56.069Z,15.45
2018-09-19T04:34:24.496Z,15.49
2018-09-19T04:36:53.020Z,15.53
2018-09-19T04:39:21.415Z,15.60
2018-09-19T04:41:49.795Z,15.63
2018-09-19T04:44:18.206Z,15.61
2018-09-19T04:46:46.619Z,15.55
2018-09-19T04:49:15.009Z,15.66
2018-09-19T04:51:43.457Z,15.68
2018-09-19T04:54:11.826Z,15.71
2018-09-19T04:56:40.877Z,15.69
2018-09-19T04:59:09.298Z,15.54
2018-09-19T05:01:37.716Z,15.39
2018-09-19T05:04:06.145Z,15.35
2018-09-19T05:06:34.541Z,15.22
2018-09-19T05:09:03.241Z,15.17
2018-09-19T05:11:32.874Z,15.16
2018-09-19T05:14:01.859Z,15.19
2018-09-19T05:16:30.303Z,15.18
2018-09-19T05:18:59.453Z,15.17
2018-09-19T05:21:27.845Z,15.05
2018-09-19T05:23:56.359Z,15.02
2018-09-19T05:26:27.260Z,14.99
2018-09-19T05:28:55.697Z,15.01
2018-09-19T05:31:24.850Z,15.07
2018-09-19T05:33:55.450Z,15.10
2018-09-19T05:36:24.268Z,15.12
2018-09-19T05:38:53.240Z,15.12
2018-09-19T05:41:21.624Z,15.09
2018-09-19T05:43:50.267Z,15.09
2018-09-19T05:46:18.947Z,15.14
2018-09-19T05:48:47.345Z,15.16
2018-09-19T05:51:15.764Z,15.17
2018-09-19T05:53:44.214Z,15.22
2018-09-19T05:56:18.536Z,15.23
2018-09-19T05:58:46.972Z,15.29
2018-09-19T06:01:15.488Z,15.35
2018-09-19T06:03:45.592Z,15.44
2018-09-19T06:06:15.265Z,15.53
2018-09-19T06:08:43.756Z,15.61
2018-09-19T06:11:12.183Z,15.69
2018-09-19T06:13:40.581Z,15.74
2018-09-19T06:16:09.004Z,15.81
2018-09-19T06:18:37.383Z,15.84
2018-09-19T06:21:05.880Z,15.85
2018-09-19T06:23:34.317Z,15.92
2018-09-19T06:26:02.762Z,15.99
2018-09-19T06:28:31.872Z,16.04
2018-09-19T06:31:00.318Z,16.08
2018-09-19T06:33:28.793Z,16.12
2018-09-19T06:35:57.148Z,16.17
2018-09-19T06:38:25.717Z,16.20
2018-09-19T06:40:54.278Z,16.24
2018-09-19T06:43:22.536Z,16.28
2018-09-19T06:45:51.005Z,16.32
2018-09-19T06:48:19.465Z,16.35
2018-09-19T06:50:48.243Z,16.39
2018-09-19T06:53:16.640Z,16.45
2018-09-19T06:55:45.051Z,16.48
2018-09-19T06:58:14.129Z,16.53
2018-09-19T07:00:42.580Z,16.59
2018-09-19T07:03:10.993Z,16.65
2018-09-19T07:05:39.463Z,16.66
2018-09-19T07:08:08.722Z,16.79
2018-09-19T07:10:37.212Z,16.82
2018-09-19T07:13:05.724Z,16.88
2018-09-19T07:15:34.093Z,16.94
2018-09-19T07:18:02.513Z,17.00
2018-09-19T07:20:30.936Z,16.98
2018-09-19T07:22:59.337Z,17.00
2018-09-19T07:25:27.756Z,17.01
2018-09-19T07:27:56.212Z,17.06
2018-09-19T07:30:24.749Z,17.11
2018-09-19T07:32:53.177Z,17.11
2018-09-19T07:35:21.625Z,17.19
2018-09-19T07:37:50.074Z,17.29
2018-09-19T07:40:18.474Z,17.29
2018-09-19T07:42:46.885Z,17.34
2018-09-19T07:45:15.286Z,17.38
2018-09-19T07:47:44.178Z,17.45
2018-09-19T07:50:12.577Z,17.50
2018-09-19T07:52:41.861Z,17.52
2018-09-19T07:55:10.270Z,17.56
2018-09-19T07:57:38.657Z,17.61
2018-09-19T08:00:07.299Z,17.66
2018-09-19T08:02:35.697Z,17.76
2018-09-19T08:05:04.137Z,17.83
2018-09-19T08:07:32.541Z,17.90
2018-09-19T08:10:01.293Z,17.96
2018-09-19T08:12:29.733Z,17.93
2018-09-19T08:14:58.159Z,17.94
2018-09-19T08:17:26.550Z,18.08
2018-09-19T08:19:55.309Z,18.09
2018-09-19T08:22:23.809Z,18.16
2018-09-19T08:24:52.279Z,18.21
2018-09-19T08:27:20.786Z,18.30
2018-09-19T08:29:49.202Z,18.46
2018-09-19T08:32:17.636Z,18.62
2018-09-19T08:34:46.228Z,18.71
2018-09-19T08:37:14.629Z,18.75
2018-09-19T08:39:43.027Z,18.80
2018-09-19T08:42:11.630Z,18.91
2018-09-19T08:44:40.099Z,18.91
2018-09-19T08:47:08.543Z,18.83
2018-09-19T08:49:36.954Z,18.80
2018-09-19T08:52:05.324Z,18.79
2018-09-19T08:54:33.736Z,18.80
2018-09-19T08:57:02.209Z,18.82
2018-09-19T08:59:30.699Z,18.81
2018-09-19T09:01:59.119Z,18.89
2018-09-19T09:04:27.591Z,18.98
2018-09-19T09:06:56.088Z,19.07
2018-09-19T09:09:24.556Z,19.10
2018-09-19T09:11:52.972Z,19.16
2018-09-19T09:14:21.747Z,19.21
2018-09-19T09:16:50.184Z,19.29
2018-09-19T09:19:18.601Z,19.31
2018-09-19T09:21:47.013Z,19.31
2018-09-19T09:24:15.402Z,19.42
2018-09-19T09:26:43.864Z,19.45
2018-09-19T09:29:12.277Z,19.44
2018-09-19T09:31:40.697Z,19.37
2018-09-19T09:34:09.162Z,19.33
2018-09-19T09:36:37.688Z,19.41
2018-09-19T09:39:06.986Z,19.59
2018-09-19T09:41:35.396Z,19.65
2018-09-19T09:44:03.868Z,19.63
2018-09-19T09:46:32.303Z,19.68
2018-09-19T09:49:00.733Z,19.68
2018-09-19T09:51:29.216Z,19.86
2018-09-19T09:53:57.645Z,19.89
2018-09-19T09:56:26.037Z,19.96
2018-09-19T09:58:54.406Z,20.05
2018-09-19T10:01:22.834Z,20.07
2018-09-19T10:03:51.238Z,20.25
2018-09-19T10:06:19.659Z,20.48
2018-09-19T10:08:48.131Z,20.61
2018-09-19T10:11:17.380Z,20.72
2018-09-19T10:13:46.399Z,20.90
2018-09-19T10:16:15.397Z,21.02
2018-09-19T10:18:44.428Z,21.15
2018-09-19T10:21:12.897Z,21.18
2018-09-19T10:23:41.304Z,21.21
2018-09-19T10:26:09.726Z,21.18
2018-09-19T10:28:38.116Z,21.27
2018-09-19T10:31:06.516Z,21.24
2018-09-19T10:33:34.893Z,21.19
2018-09-19T10:36:03.872Z,21.24
2018-09-19T10:38:32.334Z,21.28
2018-09-19T10:41:00.745Z,21.31
2018-09-19T10:43:29.155Z,21.37
2018-09-19T10:45:57.548Z,21.55
2018-09-19T10:48:25.980Z,21.69
2018-09-19T10:50:55.370Z,21.95
2018-09-19T10:53:23.816Z,22.25
2018-09-19T10:55:52.972Z,22.57
2018-09-19T10:58:21.542Z,23.05
2018-09-19T11:00:49.933Z,23.13
2018-09-19T11:03:18.336Z,22.91
2018-09-19T11:05:46.750Z,22.78
2018-09-19T11:08:15.151Z,22.69
2018-09-19T11:10:43.604Z,22.74
2018-09-19T11:13:12.001Z,22.73
2018-09-19T11:15:41.521Z,22.52
2018-09-19T11:18:09.951Z,22.65
2018-09-19T11:20:39.137Z,22.68
2018-09-19T11:23:07.585Z,22.71
2018-09-19T11:25:36.028Z,22.75
2018-09-19T11:28:04.886Z,23.02
2018-09-19T11:30:33.977Z,23.45
2018-09-19T11:33:02.424Z,23.39
2018-09-19T11:35:31.621Z,23.39
2018-09-19T11:38:00.048Z,23.31
2018-09-19T11:40:28.432Z,23.45
2018-09-19T11:42:56.936Z,23.43
2018-09-19T11:45:25.364Z,23.57
2018-09-19T11:47:53.792Z,23.77
2018-09-19T11:50:22.352Z,23.96
2018-09-19T11:52:50.821Z,24.00
2018-09-19T11:55:19.234Z,24.11
2018-09-19T11:57:47.652Z,24.09
2018-09-19T12:00:16.867Z,24.06
2018-09-19T12:02:45.279Z,24.14
2018-09-19T12:05:13.727Z,24.23
2018-09-19T12:07:42.254Z,24.17
2018-09-19T12:10:10.713Z,24.19
2018-09-19T12:12:39.109Z,24.20
2018-09-19T12:15:08.117Z,24.19
2018-09-19T12:17:36.545Z,24.36
2018-09-19T12:20:05.012Z,24.78
2018-09-19T12:22:33.439Z,25.13
2018-09-19T12:25:03.368Z,25.13
2018-09-19T12:27:31.948Z,24.79
2018-09-19T12:30:00.349Z,24.59
2018-09-19T12:32:28.762Z,24.43
2018-09-19T12:34:57.187Z,24.21
2018-09-19T12:37:25.696Z,24.18
2018-09-19T12:39:54.307Z,24.01
2018-09-19T12:42:22.720Z,23.99
2018-09-19T12:44:51.115Z,24.00
2018-09-19T12:47:19.969Z,24.26
2018-09-19T12:49:48.514Z,24.41
2018-09-19T12:52:17.963Z,25.06
2018-09-19T12:54:46.384Z,25.31
2018-09-19T12:57:15.480Z,25.60
2018-09-19T12:59:43.887Z,25.96
2018-09-19T13:02:12.358Z,25.74
2018-09-19T13:04:40.729Z,25.95
2018-09-19T13:07:09.152Z,26.21
2018-09-19T13:09:37.538Z,26.05
2018-09-19T13:12:05.961Z,26.23
2018-09-19T13:14:34.404Z,26.36
2018-09-19T13:17:02.837Z,26.23
2018-09-19T13:19:32.091Z,26.22
2018-09-19T13:22:00.480Z,26.23
2018-09-19T13:24:28.848Z,26.20
2018-09-19T13:26:57.252Z,26.06
2018-09-19T13:29:26.445Z,25.79
2018-09-19T13:31:55.265Z,25.62
2018-09-19T13:34:24.250Z,25.49
2018-09-19T13:36:52.745Z,25.30
2018-09-19T13:39:22.098Z,25.19
2018-09-19T13:41:50.500Z,25.24
2018-09-19T13:44:18.914Z,25.37
2018-09-19T13:46:47.278Z,25.38
2018-09-19T13:49:25.278Z,25.30
2018-09-19T13:51:53.717Z,25.24
2018-09-19T13:54:22.174Z,25.30
2018-09-19T13:56:50.636Z,25.40
2018-09-19T13:59:19.035Z,25.33
2018-09-19T14:01:47.525Z,25.27
2018-09-19T14:04:16.091Z,25.26
2018-09-19T14:06:46.127Z,25.14
2018-09-19T14:09:14.785Z,25.06
2018-09-19T14:11:43.814Z,24.98
2018-09-19T14:14:12.877Z,24.97
2018-09-19T14:16:41.445Z,25.08
2018-09-19T14:19:10.847Z,25.06
2018-09-19T14:21:39.296Z,24.89
2018-09-19T14:24:07.763Z,25.01
2018-09-19T14:26:36.266Z,25.07
2018-09-19T14:29:04.825Z,25.00
2018-09-19T14:31:33.312Z,24.97
2018-09-19T14:34:01.844Z,25.06
2018-09-19T14:36:30.867Z,25.27
2018-09-19T14:38:59.266Z,25.08
2018-09-19T14:41:27.768Z,25.09
2018-09-19T14:43:56.192Z,25.06
2018-09-19T14:46:24.608Z,24.95
2018-09-19T14:48:53.077Z,25.06
2018-09-19T14:51:21.804Z,25.13
2018-09-19T14:53:50.228Z,25.13
2018-09-19T14:56:18.710Z,25.08
2018-09-19T14:58:47.164Z,25.06
2018-09-19T15:01:16.536Z,25.06
2018-09-19T15:03:44.969Z,25.03
2018-09-19T15:06:13.467Z,25.00
2018-09-19T15:08:41.884Z,24.98
2018-09-19T15:11:10.888Z,25.12
2018-09-19T15:13:40.451Z,25.13
2018-09-19T15:16:09.661Z,25.05
2018-09-19T15:18:38.112Z,24.91
2018-09-19T15:21:07.532Z,24.90
2018-09-19T15:23:36.002Z,25.08
2018-09-19T15:26:04.886Z,25.09
2018-09-19T15:28:33.874Z,25.08
2018-09-19T15:31:02.228Z,24.94
2018-09-19T15:33:30.685Z,24.87
2018-09-19T15:35:59.100Z,24.86
2018-09-19T15:38:27.549Z,24.87
2018-09-19T15:40:55.999Z,24.81
2018-09-19T15:43:24.440Z,25.05
2018-09-19T15:45:52.861Z,25.07
2018-09-19T15:48:21.379Z,24.84
2018-09-19T15:50:49.746Z,24.71
2018-09-19T15:53:18.126Z,24.85
2018-09-19T15:55:46.570Z,24.91
2018-09-19T15:58:14.988Z,24.85
2018-09-19T16:00:43.466Z,24.83
2018-09-19T16:03:11.993Z,24.97
2018-09-19T16:05:40.497Z,25.01
2018-09-19T16:08:08.926Z,25.09
2018-09-19T16:10:37.389Z,25.06
2018-09-19T16:13:05.845Z,25.03
2018-09-19T16:15:34.690Z,24.89
2018-09-19T16:18:03.355Z,24.95
2018-09-19T16:20:31.810Z,25.06
2018-09-19T16:23:00.208Z,24.92
2018-09-19T16:25:28.657Z,24.84
2018-09-19T16:27:57.108Z,24.86
2018-09-19T16:30:25.572Z,24.83
2018-09-19T16:32:53.986Z,24.72
2018-09-19T16:35:23.089Z,24.57
2018-09-19T16:37:51.657Z,24.65
2018-09-19T16:40:20.079Z,24.67
2018-09-19T16:42:48.492Z,24.67
2018-09-19T16:45:17.939Z,24.73
2018-09-19T16:47:46.354Z,24.67
2018-09-19T16:50:15.970Z,24.54
2018-09-19T16:52:44.473Z,24.43
2018-09-19T16:55:13.071Z,24.27
2018-09-19T16:57:41.505Z,24.24
2018-09-19T17:00:10.404Z,24.19
2018-09-19T17:02:38.899Z,24.35
2018-09-19T17:05:08.329Z,24.28
2018-09-19T17:07:36.748Z,24.17
2018-09-19T17:10:05.325Z,24.10
2018-09-19T17:12:33.737Z,23.98
2018-09-19T17:15:02.168Z,24.00
2018-09-19T17:17:30.633Z,23.94
2018-09-19T17:19:59.055Z,23.94
2018-09-19T17:22:27.495Z,23.89
2018-09-19T17:24:56.608Z,24.04
2018-09-19T17:27:25.056Z,23.99
2018-09-19T17:29:54.603Z,23.84
2018-09-19T17:32:23.076Z,23.78
2018-09-19T17:34:51.598Z,23.66
2018-09-19T17:37:20.079Z,23.62
2018-09-19T17:39:48.556Z,23.63
2018-09-19T17:42:17.188Z,23.59
2018-09-19T17:44:46.033Z,23.58
2018-09-19T17:47:14.498Z,23.51
2018-09-19T17:49:45.044Z,23.44
2018-09-19T17:52:13.638Z,23.34
2018-09-19T17:54:42.932Z,23.20
2018-09-19T17:57:11.403Z,23.28
2018-09-19T17:59:39.837Z,23.33
2018-09-19T18:02:08.340Z,23.34
2018-09-19T18:04:37.131Z,23.31
2018-09-19T18:07:05.873Z,23.22
2018-09-19T18:09:34.323Z,23.15
2018-09-19T18:12:02.775Z,23.14
2018-09-19T18:14:31.485Z,23.15
2018-09-19T18:16:59.989Z,23.13
2018-09-19T18:19:28.432Z,23.02
2018-09-19T18:21:56.945Z,22.92
2018-09-19T18:24:25.513Z,22.80
2018-09-19T18:26:53.929Z,22.72
2018-09-19T18:29:22.352Z,22.71
2018-09-19T18:31:51.042Z,22.62
2018-09-19T18:34:19.596Z,22.58
2018-09-19T18:36:48.137Z,22.53
2018-09-19T18:39:17.320Z,22.51
2018-09-19T18:41:46.502Z,22.44
2018-09-19T18:44:14.959Z,22.43
2018-09-19T18:46:44.065Z,22.32
2018-09-19T18:49:13.665Z,22.29
2018-09-19T18:51:42.072Z,22.26
2018-09-19T18:54:10.532Z,22.17
2018-09-19T18:56:39.860Z,22.12
2018-09-19T18:59:13.218Z,22.13
2018-09-19T19:01:42.243Z,22.05
2018-09-19T19:04:10.681Z,21.96
2018-09-19T19:06:39.172Z,21.95
2018-09-19T19:09:10.323Z,21.89
2018-09-19T19:11:39.397Z,21.83
2018-09-19T19:14:08.209Z,21.77
2018-09-19T19:16:36.686Z,21.71
2018-09-19T19:19:05.398Z,21.66
2018-09-19T19:21:34.687Z,21.60
2018-09-19T19:24:03.201Z,21.49
2018-09-19T19:26:32.245Z,21.42
2018-09-19T19:29:00.683Z,21.38
2018-09-19T19:31:29.619Z,21.36
2018-09-19T19:33:58.949Z,21.33
2018-09-19T19:36:28.456Z,21.23
2018-09-19T19:38:56.930Z,21.16
2018-09-19T19:41:25.346Z,21.09
2018-09-19T19:43:53.785Z,21.06
2018-09-19T19:46:22.257Z,21.02
2018-09-19T19:48:51.322Z,20.95
2018-09-19T19:51:19.764Z,20.88
2018-09-19T19:53:48.201Z,20.81
2018-09-19T19:56:16.773Z,20.77
2018-09-19T19:58:45.185Z,20.75
2018-09-19T20:01:14.153Z,20.69
2018-09-19T20:03:42.584Z,20.66
2018-09-19T20:06:11.144Z,20.61
2018-09-19T20:08:39.864Z,20.51
2018-09-19T20:11:08.304Z,20.39
2018-09-19T20:13:37.541Z,20.36
2018-09-19T20:16:06.588Z,20.33
2018-09-19T20:18:35.766Z,20.25
2018-09-19T20:21:04.187Z,20.16
2018-09-19T20:23:32.613Z,20.08
2018-09-19T20:26:01.605Z,20.01
2018-09-19T20:28:30.065Z,20.00
2018-09-19T20:30:58.483Z,19.91
2018-09-19T20:33:26.903Z,19.83
2018-09-19T20:35:56.307Z,19.80
2018-09-19T20:38:24.708Z,19.74
2018-09-19T20:40:53.641Z,19.71
2018-09-19T20:43:22.061Z,19.72
2018-09-19T20:45:50.478Z,19.68
2018-09-19T20:48:18.868Z,19.63
2018-09-19T20:50:49.148Z,19.59
2018-09-19T20:53:17.577Z,19.43
2018-09-19T20:55:48.731Z,19.41
2018-09-19T20:58:17.120Z,19.38
2018-09-19T21:00:45.655Z,19.42
2018-09-19T21:03:14.056Z,19.39
2018-09-19T21:05:42.515Z,19.38
2018-09-19T21:08:10.918Z,19.36
2018-09-19T21:10:39.352Z,19.36
2018-09-19T21:13:07.749Z,19.33
2018-09-19T21:15:36.196Z,19.22
2018-09-19T21:18:04.624Z,19.11
2018-09-19T21:20:33.062Z,19.06
2018-09-19T21:23:01.485Z,18.98
2018-09-19T21:25:29.909Z,18.94
2018-09-19T21:27:58.313Z,18.93
2018-09-19T21:30:26.790Z,18.87
2018-09-19T21:32:55.254Z,18.77
2018-09-19T21:35:24.040Z,18.78
2018-09-19T21:37:52.516Z,18.71
2018-09-19T21:40:21.141Z,18.64
2018-09-19T21:42:49.881Z,18.60
2018-09-19T21:45:18.430Z,18.57
2018-09-19T21:47:46.884Z,18.55
2018-09-19T21:50:16.040Z,18.57
2018-09-19T21:52:44.641Z,18.54
2018-09-19T21:55:13.002Z,18.53
2018-09-19T21:57:41.469Z,18.46
2018-09-19T22:00:10.087Z,18.36
2018-09-19T22:02:38.507Z,18.32
2018-09-19T22:05:06.953Z,18.13
2018-09-19T22:07:35.427Z,18.28
2018-09-19T22:10:03.968Z,18.15
2018-09-19T22:12:32.384Z,17.98
2018-09-19T22:15:00.793Z,17.99
2018-09-19T22:17:29.191Z,17.97
2018-09-19T22:19:57.588Z,17.98
2018-09-19T22:22:25.966Z,17.99
2018-09-19T22:24:54.361Z,18.04
2018-09-19T22:27:23.619Z,17.99
2018-09-19T22:29:52.029Z,17.97
2018-09-19T22:32:20.456Z,17.95
2018-09-19T22:34:48.881Z,17.88
2018-09-19T22:37:17.264Z,17.80
2018-09-19T22:39:45.637Z,17.76
2018-09-19T22:42:14.073Z,17.73
2018-09-19T22:44:42.466Z,17.68
2018-09-19T22:47:10.921Z,17.66
2018-09-19T22:49:39.309Z,17.56
2018-09-19T22:52:07.705Z,17.45
2018-09-19T22:54:36.124Z,17.49
2018-09-19T22:57:04.545Z,17.53
2018-09-19T22:59:32.952Z,17.50
2018-09-19T23:02:01.598Z,17.48
2018-09-19T23:04:29.872Z,17.47
2018-09-19T23:06:58.361Z,17.52
2018-09-19T23:09:26.857Z,17.51
2018-09-19T23:11:55.317Z,17.45
2018-09-19T23:14:23.737Z,17.36
2018-09-19T23:16:52.171Z,17.33
2018-09-19T23:19:20.587Z,17.24
2018-09-19T23:21:48.970Z,17.22
2018-09-19T23:24:17.376Z,17.27
2018-09-19T23:26:45.779Z,17.22
2018-09-19T23:29:14.140Z,17.18
2018-09-19T23:31:42.530Z,17.13
2018-09-19T23:34:10.960Z,17.11
2018-09-19T23:36:39.364Z,17.05
2018-09-19T23:39:09.283Z,17.05
2018-09-19T23:41:37.686Z,17.00
2018-09-19T23:44:07.076Z,17.02
2018-09-19T23:46:35.476Z,16.99
2018-09-19T23:49:03.932Z,16.92
2018-09-19T23:51:32.329Z,16.80
2018-09-19T23:54:00.841Z,16.84
2018-09-19T23:56:29.211Z,16.68
2018-09-19T23:58:57.643Z,16.69
